createdAt,value
2016-08-14T00:00:58.760Z,1019.26
2016-08-14T00:01:58.718Z,1019.24
2016-08-14T00:02:58.473Z,1019.26
2016-08-14T00:03:58.437Z,1019.3
2016-08-14T00:04:58.635Z,1019.25
2016-08-14T00:05:58.553Z,1019.28
2016-08-14T00:06:58.314Z,1019.26
2016-08-14T00:07:58.257Z,1019.24
2016-08-14T00:08:58.410Z,1019.25
2016-08-14T00:09:58.168Z,1019.29
2016-08-14T00:10:58.120Z,1019.22
2016-08-14T00:11:58.082Z,1019.24
2016-08-14T00:12:58.032Z,1019.23
2016-08-14T00:13:57.987Z,1019.21
2016-08-14T00:14:57.949Z,1019.22
2016-08-14T00:15:57.904Z,1019.24
2016-08-14T00:16:57.860Z,1019.2
2016-08-14T00:17:57.813Z,1019.23
2016-08-14T00:18:57.772Z,1019.27
2016-08-14T00:19:57.722Z,1019.27
2016-08-14T00:20:57.678Z,1019.24
2016-08-14T00:21:57.633Z,1019.23
2016-08-14T00:22:57.603Z,1019.22
2016-08-14T00:23:57.552Z,1019.22
2016-08-14T00:24:57.505Z,1019.21
2016-08-14T00:25:57.662Z,1019.16
2016-08-14T00:26:57.412Z,1019.18
2016-08-14T00:27:57.570Z,1019.14
2016-08-14T00:28:57.322Z,1019.14
2016-08-14T00:29:57.481Z,1019.13
2016-08-14T00:30:57.239Z,1019.16
2016-08-14T00:31:57.188Z,1019.15
2016-08-14T00:32:57.152Z,1019.18
2016-08-14T00:33:57.108Z,1019.19
2016-08-14T00:34:57.056Z,1019.18
2016-08-14T00:35:57.022Z,1019.16
2016-08-14T00:36:56.970Z,1019.18
2016-08-14T00:37:56.926Z,1019.21
2016-08-14T00:38:56.880Z,1019.19
2016-08-14T00:39:56.842Z,1019.16
2016-08-14T00:40:56.804Z,1019.16
2016-08-14T00:41:56.950Z,1019.17
2016-08-14T00:42:56.702Z,1019.15
2016-08-14T00:43:56.663Z,1019.15
2016-08-14T00:44:56.813Z,1019.18
2016-08-14T00:45:56.569Z,1019.17
2016-08-14T00:46:56.529Z,1019.21
2016-08-14T00:47:56.495Z,1019.18
2016-08-14T00:48:56.441Z,1019.23
2016-08-14T00:49:56.452Z,1019.22
2016-08-14T00:50:56.556Z,1019.2
2016-08-14T00:51:56.307Z,1019.23
2016-08-14T00:52:56.264Z,1019.27
2016-08-14T00:53:56.214Z,1019.26
2016-08-14T00:54:56.176Z,1019.26
2016-08-14T00:55:56.132Z,1019.28
2016-08-14T00:56:56.082Z,1019.26
2016-08-14T00:57:56.036Z,1019.27
2016-08-14T00:58:55.994Z,1019.26
2016-08-14T00:59:55.955Z,1019.26
2016-08-14T01:00:55.902Z,1019.22
2016-08-14T01:01:56.062Z,1019.2
2016-08-14T01:02:56.023Z,1019.23
2016-08-14T01:03:55.772Z,1019.21
2016-08-14T01:04:55.730Z,1019.21
2016-08-14T01:05:55.676Z,1019.22
2016-08-14T01:06:55.634Z,1019.18
2016-08-14T01:07:55.596Z,1019.16
2016-08-14T01:08:55.542Z,1019.18
2016-08-14T01:09:55.501Z,1019.23
2016-08-14T01:10:55.458Z,1019.17
2016-08-14T01:11:55.407Z,1019.17
2016-08-14T01:12:55.566Z,1019.2
2016-08-14T01:13:55.319Z,1019.18
2016-08-14T01:14:55.275Z,1019.13
2016-08-14T01:15:55.230Z,1019.17
2016-08-14T01:16:55.179Z,1019.17
2016-08-14T01:17:55.139Z,1019.13
2016-08-14T01:18:55.097Z,1019.17
2016-08-14T01:19:55.252Z,1019.11
2016-08-14T01:20:55.002Z,1019.13
2016-08-14T01:21:54.959Z,1019.11
2016-08-14T01:22:55.320Z,1019.14
2016-08-14T01:23:55.067Z,1019.13
2016-08-14T01:24:54.819Z,1019.14
2016-08-14T01:25:54.777Z,1019.15
2016-08-14T01:26:54.731Z,1019.1
2016-08-14T01:27:54.683Z,1019.11
2016-08-14T01:28:54.648Z,1019.14
2016-08-14T01:29:54.595Z,1019.11
2016-08-14T01:30:54.551Z,1019.11
2016-08-14T01:31:54.708Z,1019.11
2016-08-14T01:32:54.461Z,1019.07
2016-08-14T01:33:54.419Z,1019.09
2016-08-14T01:34:54.396Z,1019.1
2016-08-14T01:35:54.331Z,1019.1
2016-08-14T01:36:54.282Z,1019.1
2016-08-14T01:37:54.236Z,1019.09
2016-08-14T01:38:54.192Z,1019.11
2016-08-14T01:39:54.152Z,1019.12
2016-08-14T01:40:54.102Z,1019.12
2016-08-14T01:41:54.059Z,1019.14
2016-08-14T01:42:54.011Z,1019.15
2016-08-14T01:43:53.967Z,1019.14
2016-08-14T01:44:53.935Z,1019.09
2016-08-14T01:45:53.882Z,1019.11
2016-08-14T01:46:54.034Z,1019.12
2016-08-14T01:47:53.987Z,1019.12
2016-08-14T01:48:53.740Z,1019.11
2016-08-14T01:49:53.695Z,1019.1
2016-08-14T01:50:53.650Z,1019.13
2016-08-14T01:51:53.603Z,1019.17
2016-08-14T01:52:53.558Z,1019.15
2016-08-14T01:53:53.514Z,1019.14
2016-08-14T01:54:53.469Z,1019.09
2016-08-14T01:55:53.430Z,1019.12
2016-08-14T01:56:53.376Z,1019.1
2016-08-14T01:57:53.328Z,1019.06
2016-08-14T01:58:53.295Z,1019.06
2016-08-14T01:59:53.240Z,1019.08
2016-08-14T02:00:53.194Z,1019.06
2016-08-14T02:01:53.550Z,1019.01
2016-08-14T02:02:53.108Z,1019.04
2016-08-14T02:03:53.061Z,1019.03
2016-08-14T02:04:53.013Z,1019.04
2016-08-14T02:05:52.971Z,1019.03
2016-08-14T02:06:52.931Z,1019
2016-08-14T02:07:52.882Z,1018.97
2016-08-14T02:08:52.835Z,1019.02
2016-08-14T02:09:52.792Z,1019.03
2016-08-14T02:10:52.746Z,1019.05
2016-08-14T02:11:52.698Z,1019.03
2016-08-14T02:12:52.652Z,1018.99
2016-08-14T02:13:52.611Z,1018.99
2016-08-14T02:14:52.561Z,1019.02
2016-08-14T02:15:52.521Z,1019
2016-08-14T02:16:52.473Z,1019.01
2016-08-14T02:17:52.432Z,1018.98
2016-08-14T02:18:52.382Z,1018.99
2016-08-14T02:19:52.343Z,1019
2016-08-14T02:20:52.299Z,1019
2016-08-14T02:21:52.446Z,1019
2016-08-14T02:22:52.201Z,1019
2016-08-14T02:23:52.360Z,1019
2016-08-14T02:24:52.123Z,1018.98
2016-08-14T02:25:52.063Z,1019
2016-08-14T02:26:52.042Z,1019.03
2016-08-14T02:27:51.986Z,1019
2016-08-14T02:28:51.933Z,1018.99
2016-08-14T02:29:51.892Z,1019.01
2016-08-14T02:30:52.065Z,1019.03
2016-08-14T02:31:51.793Z,1018.98
2016-08-14T02:32:51.754Z,1019.02
2016-08-14T02:33:51.704Z,1018.99
2016-08-14T02:34:51.662Z,1018.98
2016-08-14T02:35:51.623Z,1018.91
2016-08-14T02:36:51.572Z,1018.98
2016-08-14T02:37:51.523Z,1018.99
2016-08-14T02:38:51.483Z,1018.95
2016-08-14T02:39:51.430Z,1018.96
2016-08-14T02:40:51.393Z,1018.94
2016-08-14T02:41:51.342Z,1018.96
2016-08-14T02:42:51.293Z,1018.95
2016-08-14T02:43:51.451Z,1018.96
2016-08-14T02:44:51.410Z,1018.94
2016-08-14T02:45:51.156Z,1018.96
2016-08-14T02:46:51.114Z,1018.96
2016-08-14T02:47:51.067Z,1018.95
2016-08-14T02:48:51.022Z,1018.98
2016-08-14T02:49:50.980Z,1018.96
2016-08-14T02:50:50.933Z,1018.95
2016-08-14T02:51:50.884Z,1019.01
2016-08-14T02:52:50.837Z,1019
2016-08-14T02:53:50.794Z,1018.98
2016-08-14T02:54:50.749Z,1018.99
2016-08-14T02:55:50.905Z,1019.01
2016-08-14T02:56:50.659Z,1019.02
2016-08-14T02:57:50.612Z,1019.01
2016-08-14T02:58:50.562Z,1019.05
2016-08-14T02:59:50.929Z,1019.06
2016-08-14T03:00:50.482Z,1019.06
2016-08-14T03:01:50.432Z,1019.08
2016-08-14T03:02:50.382Z,1019.08
2016-08-14T03:03:50.342Z,1019.09
2016-08-14T03:04:50.290Z,1019.09
2016-08-14T03:05:50.252Z,1019.13
2016-08-14T03:06:50.199Z,1019.09
2016-08-14T03:07:50.159Z,1019.12
2016-08-14T03:08:50.118Z,1019.16
2016-08-14T03:09:50.268Z,1019.11
2016-08-14T03:10:50.024Z,1019.17
2016-08-14T03:11:49.979Z,1019.14
2016-08-14T03:12:49.928Z,1019.16
2016-08-14T03:13:49.885Z,1019.15
2016-08-14T03:14:49.839Z,1019.14
2016-08-14T03:15:49.803Z,1019.15
2016-08-14T03:16:49.750Z,1019.15
2016-08-14T03:17:49.711Z,1019.18
2016-08-14T03:18:49.655Z,1019.16
2016-08-14T03:19:49.691Z,1019.17
2016-08-14T03:20:49.573Z,1019.16
2016-08-14T03:21:49.520Z,1019.11
2016-08-14T03:22:49.682Z,1019.13
2016-08-14T03:23:49.633Z,1019.14
2016-08-14T03:24:49.386Z,1019.14
2016-08-14T03:25:49.335Z,1019.16
2016-08-14T03:26:49.298Z,1019.16
2016-08-14T03:27:49.249Z,1019.17
2016-08-14T03:28:49.201Z,1019.13
2016-08-14T03:29:49.159Z,1019.15
2016-08-14T03:30:49.114Z,1019.14
2016-08-14T03:31:49.070Z,1019.16
2016-08-14T03:32:49.019Z,1019.18
2016-08-14T03:33:48.973Z,1019.19
2016-08-14T03:34:48.945Z,1019.22
2016-08-14T03:35:48.880Z,1019.18
2016-08-14T03:36:49.042Z,1019.18
2016-08-14T03:37:48.792Z,1019.19
2016-08-14T03:38:48.751Z,1019.19
2016-08-14T03:39:48.701Z,1019.23
2016-08-14T03:40:48.661Z,1019.24
2016-08-14T03:41:48.612Z,1019.2
2016-08-14T03:42:48.569Z,1019.22
2016-08-14T03:43:48.518Z,1019.2
2016-08-14T03:44:48.478Z,1019.19
2016-08-14T03:45:48.432Z,1019.19
2016-08-14T03:46:48.382Z,1019.21
2016-08-14T03:47:48.344Z,1019.22
2016-08-14T03:48:48.294Z,1019.23
2016-08-14T03:49:48.448Z,1019.2
2016-08-14T03:50:48.200Z,1019.23
2016-08-14T03:51:48.155Z,1019.29
2016-08-14T03:52:48.116Z,1019.25
2016-08-14T03:53:48.066Z,1019.24
2016-08-14T03:54:48.021Z,1019.24
2016-08-14T03:55:47.978Z,1019.21
2016-08-14T03:56:48.130Z,1019.18
2016-08-14T03:57:47.882Z,1019.18
2016-08-14T03:58:47.842Z,1019.19
2016-08-14T03:59:47.792Z,1019.2
2016-08-14T04:00:47.750Z,1019.22
2016-08-14T04:01:47.700Z,1019.23
2016-08-14T04:02:47.658Z,1019.22
2016-08-14T04:03:47.821Z,1019.21
2016-08-14T04:04:47.565Z,1019.22
2016-08-14T04:05:47.518Z,1019.24
2016-08-14T04:06:47.482Z,1019.24
2016-08-14T04:07:47.430Z,1019.22
2016-08-14T04:08:47.386Z,1019.25
2016-08-14T04:09:47.340Z,1019.23
2016-08-14T04:10:47.293Z,1019.22
2016-08-14T04:11:47.251Z,1019.26
2016-08-14T04:12:47.403Z,1019.23
2016-08-14T04:13:47.163Z,1019.22
2016-08-14T04:14:47.311Z,1019.26
2016-08-14T04:15:47.064Z,1019.21
2016-08-14T04:16:47.021Z,1019.25
2016-08-14T04:17:46.976Z,1019.2
2016-08-14T04:18:46.933Z,1019.18
2016-08-14T04:19:46.891Z,1019.18
2016-08-14T04:20:46.841Z,1019.21
2016-08-14T04:21:46.792Z,1019.15
2016-08-14T04:22:46.754Z,1019.15
2016-08-14T04:23:46.700Z,1019.19
2016-08-14T04:24:46.654Z,1019.19
2016-08-14T04:25:46.613Z,1019.17
2016-08-14T04:26:46.563Z,1019.18
2016-08-14T04:27:46.723Z,1019.18
2016-08-14T04:28:46.472Z,1019.17
2016-08-14T04:29:47.422Z,1019.2
2016-08-14T04:30:46.379Z,1019.18
2016-08-14T04:31:46.342Z,1019.19
2016-08-14T04:32:46.291Z,1019.21
2016-08-14T04:33:46.247Z,1019.23
2016-08-14T04:34:46.202Z,1019.25
2016-08-14T04:35:46.152Z,1019.26
2016-08-14T04:36:46.110Z,1019.28
2016-08-14T04:37:46.061Z,1019.28
2016-08-14T04:38:46.215Z,1019.3
2016-08-14T04:39:45.976Z,1019.31
2016-08-14T04:40:45.922Z,1019.35
2016-08-14T04:41:45.881Z,1019.32
2016-08-14T04:42:45.831Z,1019.3
2016-08-14T04:43:45.789Z,1019.31
2016-08-14T04:44:45.737Z,1019.31
2016-08-14T04:45:45.692Z,1019.32
2016-08-14T04:46:45.651Z,1019.34
2016-08-14T04:47:45.603Z,1019.31
2016-08-14T04:48:45.556Z,1019.35
2016-08-14T04:49:45.512Z,1019.34
2016-08-14T04:50:45.465Z,1019.35
2016-08-14T04:51:45.417Z,1019.36
2016-08-14T04:52:45.372Z,1019.34
2016-08-14T04:53:45.334Z,1019.33
2016-08-14T04:54:45.292Z,1019.34
2016-08-14T04:55:45.241Z,1019.29
2016-08-14T04:56:45.196Z,1019.34
2016-08-14T04:57:45.143Z,1019.31
2016-08-14T04:58:45.103Z,1019.3
2016-08-14T04:59:45.049Z,1019.29
2016-08-14T05:00:45.005Z,1019.29
2016-08-14T05:01:45.373Z,1019.27
2016-08-14T05:02:44.921Z,1019.3
2016-08-14T05:03:44.872Z,1019.28
2016-08-14T05:04:44.826Z,1019.25
2016-08-14T05:05:44.784Z,1019.25
2016-08-14T05:06:44.740Z,1019.21
2016-08-14T05:07:44.688Z,1019.25
2016-08-14T05:08:44.645Z,1019.28
2016-08-14T05:09:44.597Z,1019.27
2016-08-14T05:10:44.551Z,1019.29
2016-08-14T05:11:44.504Z,1019.31
2016-08-14T05:12:44.659Z,1019.29
2016-08-14T05:13:44.412Z,1019.28
2016-08-14T05:14:44.372Z,1019.31
2016-08-14T05:15:44.322Z,1019.28
2016-08-14T05:16:44.476Z,1019.33
2016-08-14T05:17:44.233Z,1019.34
2016-08-14T05:18:44.189Z,1019.33
2016-08-14T05:19:44.139Z,1019.33
2016-08-14T05:20:44.090Z,1019.3
2016-08-14T05:21:44.052Z,1019.34
2016-08-14T05:22:44.003Z,1019.33
2016-08-14T05:23:43.971Z,1019.34
2016-08-14T05:24:43.907Z,1019.35
2016-08-14T05:25:44.065Z,1019.39
2016-08-14T05:26:43.824Z,1019.35
2016-08-14T05:27:43.772Z,1019.39
2016-08-14T05:28:43.780Z,1019.35
2016-08-14T05:29:43.682Z,1019.34
2016-08-14T05:30:43.637Z,1019.35
2016-08-14T05:31:43.590Z,1019.37
2016-08-14T05:32:43.543Z,1019.37
2016-08-14T05:33:43.498Z,1019.38
2016-08-14T05:34:43.453Z,1019.41
2016-08-14T05:35:43.610Z,1019.43
2016-08-14T05:36:43.361Z,1019.42
2016-08-14T05:37:43.316Z,1019.45
2016-08-14T05:38:43.273Z,1019.44
2016-08-14T05:39:43.227Z,1019.47
2016-08-14T05:40:43.180Z,1019.51
2016-08-14T05:41:43.134Z,1019.48
2016-08-14T05:42:43.091Z,1019.51
2016-08-14T05:43:43.043Z,1019.52
2016-08-14T05:44:42.995Z,1019.61
2016-08-14T05:45:42.951Z,1019.61
2016-08-14T05:46:42.909Z,1019.65
2016-08-14T05:47:42.862Z,1019.64
2016-08-14T05:48:42.818Z,1019.67
2016-08-14T05:49:42.769Z,1019.63
2016-08-14T05:50:42.723Z,1019.63
2016-08-14T05:51:42.679Z,1019.6
2016-08-14T05:52:42.632Z,1019.61
2016-08-14T05:53:42.591Z,1019.61
2016-08-14T05:54:42.546Z,1019.56
2016-08-14T05:55:42.503Z,1019.62
2016-08-14T05:56:42.453Z,1019.54
2016-08-14T05:57:42.412Z,1019.58
2016-08-14T05:58:42.363Z,1019.57
2016-08-14T05:59:42.323Z,1019.6
2016-08-14T06:00:42.271Z,1019.59
2016-08-14T06:01:42.223Z,1019.61
2016-08-14T06:02:42.184Z,1019.6
2016-08-14T06:03:42.138Z,1019.62
2016-08-14T06:04:42.093Z,1019.64
2016-08-14T06:05:42.049Z,1019.67
2016-08-14T06:06:42.017Z,1019.62
2016-08-14T06:07:41.952Z,1019.63
2016-08-14T06:08:41.913Z,1019.64
2016-08-14T06:09:41.862Z,1019.68
2016-08-14T06:10:41.817Z,1019.72
2016-08-14T06:11:41.771Z,1019.74
2016-08-14T06:12:41.725Z,1019.75
2016-08-14T06:13:41.687Z,1019.71
2016-08-14T06:14:41.641Z,1019.71
2016-08-14T06:15:41.594Z,1019.69
2016-08-14T06:16:41.548Z,1019.68
2016-08-14T06:17:41.504Z,1019.71
2016-08-14T06:18:41.463Z,1019.73
2016-08-14T06:19:41.409Z,1019.73
2016-08-14T06:20:41.373Z,1019.74
2016-08-14T06:21:41.323Z,1019.73
2016-08-14T06:22:41.282Z,1019.73
2016-08-14T06:23:41.232Z,1019.73
2016-08-14T06:24:41.186Z,1019.76
2016-08-14T06:25:41.148Z,1019.75
2016-08-14T06:26:41.106Z,1019.8
2016-08-14T06:27:41.053Z,1019.77
2016-08-14T06:28:41.008Z,1019.78
2016-08-14T06:29:40.973Z,1019.78
2016-08-14T06:30:40.918Z,1019.77
2016-08-14T06:31:40.880Z,1019.78
2016-08-14T06:32:40.832Z,1019.77
2016-08-14T06:33:40.793Z,1019.8
2016-08-14T06:34:40.741Z,1019.78
2016-08-14T06:35:40.697Z,1019.83
2016-08-14T06:36:40.653Z,1019.82
2016-08-14T06:37:40.611Z,1019.82
2016-08-14T06:38:40.561Z,1019.83
2016-08-14T06:39:40.518Z,1019.85
2016-08-14T06:40:40.471Z,1019.84
2016-08-14T06:41:40.431Z,1019.84
2016-08-14T06:42:40.380Z,1019.86
2016-08-14T06:43:40.351Z,1019.88
2016-08-14T06:44:40.298Z,1019.9
2016-08-14T06:45:40.269Z,1019.86
2016-08-14T06:46:40.202Z,1019.93
2016-08-14T06:47:40.362Z,1019.92
2016-08-14T06:48:40.120Z,1019.97
2016-08-14T06:49:40.272Z,1019.97
2016-08-14T06:50:40.024Z,1019.93
2016-08-14T06:51:39.991Z,1019.95
2016-08-14T06:52:39.953Z,1019.95
2016-08-14T06:53:39.892Z,1019.94
2016-08-14T06:54:39.850Z,1019.94
2016-08-14T06:55:39.803Z,1019.93
2016-08-14T06:56:39.763Z,1019.96
2016-08-14T06:57:39.723Z,1019.95
2016-08-14T06:58:39.668Z,1019.94
2016-08-14T06:59:39.627Z,1019.91
2016-08-14T07:00:39.593Z,1019.89
2016-08-14T07:01:39.567Z,1019.92
2016-08-14T07:02:39.494Z,1019.96
2016-08-14T07:03:39.452Z,1019.94
2016-08-14T07:04:39.407Z,1019.94
2016-08-14T07:05:39.363Z,1019.95
2016-08-14T07:06:39.314Z,1019.94
2016-08-14T07:07:39.280Z,1019.92
2016-08-14T07:08:39.231Z,1019.91
2016-08-14T07:09:39.193Z,1019.89
2016-08-14T07:10:39.141Z,1019.92
2016-08-14T07:11:39.096Z,1019.89
2016-08-14T07:12:39.052Z,1019.85
2016-08-14T07:13:39.212Z,1019.88
2016-08-14T07:14:38.963Z,1019.83
2016-08-14T07:15:38.921Z,1019.79
2016-08-14T07:16:38.875Z,1019.76
2016-08-14T07:17:38.859Z,1019.82
2016-08-14T07:18:38.992Z,1019.83
2016-08-14T07:19:38.753Z,1019.83
2016-08-14T07:20:38.702Z,1019.87
2016-08-14T07:21:38.661Z,1019.87
2016-08-14T07:22:38.613Z,1019.86
2016-08-14T07:23:38.571Z,1019.8
2016-08-14T07:24:38.525Z,1019.87
2016-08-14T07:25:38.481Z,1019.86
2016-08-14T07:26:38.442Z,1019.86
2016-08-14T07:27:38.403Z,1019.87
2016-08-14T07:28:38.349Z,1019.88
2016-08-14T07:29:38.311Z,1019.85
2016-08-14T07:30:38.263Z,1019.84
2016-08-14T07:31:38.230Z,1019.85
2016-08-14T07:32:38.184Z,1019.87
2016-08-14T07:33:38.130Z,1019.85
2016-08-14T07:34:38.092Z,1019.85
2016-08-14T07:35:38.050Z,1019.87
2016-08-14T07:36:38.007Z,1019.89
2016-08-14T07:37:37.962Z,1019.89
2016-08-14T07:38:37.925Z,1019.88
2016-08-14T07:39:37.877Z,1019.94
2016-08-14T07:40:37.826Z,1019.9
2016-08-14T07:41:37.826Z,1019.96
2016-08-14T07:42:37.745Z,1019.95
2016-08-14T07:43:37.696Z,1020.01
2016-08-14T07:44:37.652Z,1019.97
2016-08-14T07:45:37.611Z,1019.97
2016-08-14T07:46:37.570Z,1020.03
2016-08-14T07:47:37.543Z,1020.03
2016-08-14T07:48:37.480Z,1019.94
2016-08-14T07:49:37.444Z,1020
2016-08-14T07:50:37.398Z,1019.98
2016-08-14T07:51:37.347Z,1019.99
2016-08-14T07:52:37.302Z,1020.06
2016-08-14T07:53:37.262Z,1020
2016-08-14T07:54:37.218Z,1020.01
2016-08-14T07:55:37.171Z,1020
2016-08-14T07:56:37.130Z,1020.01
2016-08-14T07:57:37.089Z,1020
2016-08-14T07:58:37.047Z,1019.98
2016-08-14T07:59:36.996Z,1019.95
2016-08-14T08:00:36.959Z,1019.94
2016-08-14T08:01:36.920Z,1019.94
2016-08-14T08:02:36.869Z,1019.96
2016-08-14T08:03:36.823Z,1019.93
2016-08-14T08:04:36.779Z,1019.95
2016-08-14T08:05:36.740Z,1019.95
2016-08-14T08:06:36.688Z,1019.95
2016-08-14T08:07:36.649Z,1019.95
2016-08-14T08:08:36.609Z,1019.95
2016-08-14T08:09:36.766Z,1019.98
2016-08-14T08:10:36.516Z,1020.03
2016-08-14T08:11:36.680Z,1020.03
2016-08-14T08:12:36.432Z,1020.05
2016-08-14T08:13:36.385Z,1020
2016-08-14T08:14:36.348Z,1019.96
2016-08-14T08:15:36.297Z,1020.02
2016-08-14T08:16:36.259Z,1020.03
2016-08-14T08:17:36.210Z,1019.98
2016-08-14T08:18:36.164Z,1019.99
2016-08-14T08:19:36.123Z,1019.94
2016-08-14T08:20:36.075Z,1019.98
2016-08-14T08:21:36.248Z,1019.97
2016-08-14T08:22:35.997Z,1019.99
2016-08-14T08:23:35.953Z,1019.98
2016-08-14T08:24:35.906Z,1020.04
2016-08-14T08:25:35.874Z,1020.02
2016-08-14T08:26:35.830Z,1019.99
2016-08-14T08:27:35.779Z,1019.97
2016-08-14T08:28:35.739Z,1019.99
2016-08-14T08:29:35.696Z,1019.97
2016-08-14T08:30:35.654Z,1019.96
2016-08-14T08:31:35.611Z,1020.01
2016-08-14T08:32:35.575Z,1020.03
2016-08-14T08:33:35.523Z,1019.99
2016-08-14T08:34:35.473Z,1020
2016-08-14T08:35:35.430Z,1019.99
2016-08-14T08:36:35.389Z,1020.04
2016-08-14T08:37:35.350Z,1020.02
2016-08-14T08:38:35.305Z,1020.05
2016-08-14T08:39:35.262Z,1020.04
2016-08-14T08:40:35.215Z,1020.05
2016-08-14T08:41:35.173Z,1020.07
2016-08-14T08:42:35.327Z,1020.08
2016-08-14T08:43:35.081Z,1020.08
2016-08-14T08:44:35.040Z,1020.12
2016-08-14T08:45:34.995Z,1020.09
2016-08-14T08:46:34.957Z,1020.11
2016-08-14T08:47:34.912Z,1020.13
2016-08-14T08:48:34.869Z,1020.14
2016-08-14T08:49:34.832Z,1020.14
2016-08-14T08:50:34.781Z,1020.12
2016-08-14T08:51:34.740Z,1020.14
2016-08-14T08:52:34.691Z,1020.17
2016-08-14T08:53:34.659Z,1020.17
2016-08-14T08:54:34.607Z,1020.22
2016-08-14T08:55:34.764Z,1020.25
2016-08-14T08:56:34.519Z,1020.18
2016-08-14T08:57:34.477Z,1020.15
2016-08-14T08:58:34.439Z,1020.16
2016-08-14T08:59:34.400Z,1020.18
2016-08-14T09:00:34.350Z,1020.17
2016-08-14T09:01:34.309Z,1020.15
2016-08-14T09:02:34.469Z,1020.17
2016-08-14T09:03:34.298Z,1020.17
2016-08-14T09:04:34.179Z,1020.2
2016-08-14T09:05:34.136Z,1020.16
2016-08-14T09:06:34.091Z,1020.08
2016-08-14T09:07:34.047Z,1020.16
2016-08-14T09:08:34.011Z,1020.16
2016-08-14T09:09:33.965Z,1020.17
2016-08-14T09:10:33.920Z,1020.23
2016-08-14T09:11:33.892Z,1020.25
2016-08-14T09:12:33.841Z,1020.2
2016-08-14T09:13:33.795Z,1020.27
2016-08-14T09:14:33.767Z,1020.26
2016-08-14T09:15:33.711Z,1020.23
2016-08-14T09:16:33.669Z,1020.3
2016-08-14T09:17:33.629Z,1020.27
2016-08-14T09:18:33.783Z,1020.32
2016-08-14T09:19:33.536Z,1020.27
2016-08-14T09:20:33.513Z,1020.26
2016-08-14T09:21:33.456Z,1020.28
2016-08-14T09:22:33.415Z,1020.26
2016-08-14T09:23:33.369Z,1020.25
2016-08-14T09:24:33.328Z,1020.27
2016-08-14T09:25:33.283Z,1020.26
2016-08-14T09:26:33.237Z,1020.31
2016-08-14T09:27:33.192Z,1020.23
2016-08-14T09:28:33.153Z,1020.24
2016-08-14T09:29:33.110Z,1020.28
2016-08-14T09:30:33.066Z,1020.26
2016-08-14T09:31:33.022Z,1020.21
2016-08-14T09:32:32.988Z,1020.22
2016-08-14T09:33:32.953Z,1020.27
2016-08-14T09:34:32.908Z,1020.28
2016-08-14T09:35:32.858Z,1020.23
2016-08-14T09:36:32.810Z,1020.23
2016-08-14T09:37:32.771Z,1020.27
2016-08-14T09:38:32.724Z,1020.2
2016-08-14T09:39:32.679Z,1020.19
2016-08-14T09:40:32.640Z,1020.2
2016-08-14T09:41:32.599Z,1020.22
2016-08-14T09:42:32.554Z,1020.24
2016-08-14T09:43:32.509Z,1020.25
2016-08-14T09:44:32.470Z,1020.22
2016-08-14T09:45:32.431Z,1020.26
2016-08-14T09:46:32.380Z,1020.24
2016-08-14T09:47:32.345Z,1020.3
2016-08-14T09:48:32.299Z,1020.25
2016-08-14T09:49:32.261Z,1020.26
2016-08-14T09:50:32.207Z,1020.24
2016-08-14T09:51:32.168Z,1020.21
2016-08-14T09:52:32.128Z,1020.29
2016-08-14T09:53:32.084Z,1020.27
2016-08-14T09:54:32.044Z,1020.27
2016-08-14T09:55:32.001Z,1020.23
2016-08-14T09:56:31.958Z,1020.22
2016-08-14T09:57:31.917Z,1020.23
2016-08-14T09:58:31.870Z,1020.21
2016-08-14T09:59:31.826Z,1020.28
2016-08-14T10:00:31.790Z,1020.22
2016-08-14T10:01:31.747Z,1020.27
2016-08-14T10:02:31.720Z,1020.23
2016-08-14T10:03:31.657Z,1020.26
2016-08-14T10:04:31.628Z,1020.25
2016-08-14T10:05:31.573Z,1020.23
2016-08-14T10:06:31.533Z,1020.22
2016-08-14T10:07:31.493Z,1020.2
2016-08-14T10:08:31.446Z,1020.19
2016-08-14T10:09:31.402Z,1020.19
2016-08-14T10:10:31.368Z,1020.2
2016-08-14T10:11:31.320Z,1020.15
